createdAt,value
2022-11-29T00:01:40.793Z,0.11
2022-11-29T00:04:08.956Z,0.10
2022-11-29T00:06:37.028Z,0.09
2022-11-29T00:09:11.960Z,0.08
2022-11-29T00:12:00.153Z,0.04
2022-11-29T00:14:28.580Z,0.02
2022-11-29T00:17:01.220Z,0.01
2022-11-29T00:19:28.998Z,-0.01
2022-11-29T00:21:56.723Z,-0.04
2022-11-29T00:24:24.496Z,-0.07
2022-11-29T00:26:52.010Z,-0.11
2022-11-29T00:29:19.868Z,-0.15
2022-11-29T00:31:47.627Z,-0.21
2022-11-29T00:34:15.112Z,-0.27
2022-11-29T00:36:42.803Z,-0.32
2022-11-29T00:39:12.055Z,-0.37
2022-11-29T00:41:40.360Z,-0.41
2022-11-29T00:44:09.630Z,-0.45
2022-11-29T00:46:38.093Z,-0.50
2022-11-29T00:49:06.087Z,-0.54
2022-11-29T00:51:33.822Z,-0.58
2022-11-29T00:54:01.844Z,-0.62
2022-11-29T00:56:29.535Z,-0.67
2022-11-29T00:58:57.530Z,-0.70
2022-11-29T01:01:25.150Z,-0.74
2022-11-29T01:03:53.226Z,-0.79
2022-11-29T01:06:21.140Z,-0.80
2022-11-29T01:08:50.225Z,-0.81
2022-11-29T01:11:24.608Z,-0.83
2022-11-29T01:13:56.755Z,-0.83
2022-11-29T01:16:25.954Z,-0.85
2022-11-29T01:18:53.731Z,-0.84
2022-11-29T01:21:23.872Z,-0.85
2022-11-29T01:23:53.470Z,-0.85
2022-11-29T01:26:24.639Z,-0.86
2022-11-29T01:28:55.832Z,-0.87
2022-11-29T01:31:31.582Z,-0.87
2022-11-29T01:34:02.457Z,-0.88
2022-11-29T01:36:30.630Z,-0.90
2022-11-29T01:39:04.205Z,-0.96
2022-11-29T01:41:35.236Z,-0.99
2022-11-29T01:44:14.131Z,-1.02
2022-11-29T01:46:45.284Z,-1.03
2022-11-29T01:49:21.217Z,-1.06
2022-11-29T01:52:02.648Z,-1.07
2022-11-29T01:54:32.580Z,-1.09
2022-11-29T01:57:04.409Z,-1.10
2022-11-29T01:59:34.084Z,-1.11
2022-11-29T02:02:19.191Z,-1.09
2022-11-29T02:04:49.419Z,-1.08
2022-11-29T02:07:17.269Z,-1.07
2022-11-29T02:09:45.093Z,-1.06
2022-11-29T02:12:45.382Z,-1.03
2022-11-29T02:15:42.499Z,-1.02
2022-11-29T02:18:21.731Z,-1.00
2022-11-29T02:21:12.979Z,-0.97
2022-11-29T02:24:18.292Z,-0.96
2022-11-29T02:27:31.198Z,-0.99
2022-11-29T02:30:10.486Z,-1.00
2022-11-29T02:32:51.921Z,-1.04
2022-11-29T02:35:40.260Z,-1.10
2022-11-29T02:38:49.559Z,-1.14
2022-11-29T02:41:37.848Z,-1.20
2022-11-29T02:44:31.560Z,-1.22
2022-11-29T02:47:07.383Z,-1.23
2022-11-29T02:50:18.227Z,-1.25
2022-11-29T02:52:57.322Z,-1.31
2022-11-29T02:55:57.188Z,-1.38
2022-11-29T02:58:30.224Z,-1.40
2022-11-29T03:01:22.814Z,-1.46
2022-11-29T03:03:58.737Z,-1.49
2022-11-29T03:06:57.327Z,-1.55
2022-11-29T03:09:44.720Z,-1.59
2022-11-29T03:12:41.933Z,-1.63
2022-11-29T03:15:36.416Z,-1.67
2022-11-29T03:18:50.906Z,-1.71
2022-11-29T03:21:36.398Z,-1.74
2022-11-29T03:24:15.857Z,-1.77
2022-11-29T03:26:51.727Z,-1.84
2022-11-29T03:29:29.765Z,-1.84
2022-11-29T03:32:05.583Z,-1.84
2022-11-29T03:35:02.862Z,-1.84
2022-11-29T03:38:06.231Z,-1.82
2022-11-29T03:41:02.870Z,-1.86
2022-11-29T03:43:44.967Z,-1.89
2022-11-29T03:46:35.011Z,-1.89
2022-11-29T03:49:17.212Z,-1.89
2022-11-29T03:52:02.734Z,-1.88
2022-11-29T03:55:12.731Z,-1.90
2022-11-29T03:57:57.586Z,-1.90
2022-11-29T04:00:29.699Z,-1.97
2022-11-29T04:03:22.392Z,-1.95
2022-11-29T04:05:58.127Z,-1.96
2022-11-29T04:08:49.194Z,-1.99
2022-11-29T04:11:45.347Z,-2.01
2022-11-29T04:14:47.121Z,-2.03
2022-11-29T04:17:38.430Z,-2.03
2022-11-29T04:20:17.366Z,-2.02
2022-11-29T04:23:05.830Z,-2.04
2022-11-29T04:25:44.545Z,-2.06
2022-11-29T04:28:40.333Z,-2.07
2022-11-29T04:31:33.995Z,-2.07
2022-11-29T04:34:22.394Z,-2.10
2022-11-29T04:37:04.144Z,-2.11
2022-11-29T04:39:52.254Z,-2.12
2022-11-29T04:42:43.439Z,-2.13
2022-11-29T04:45:59.546Z,-2.13
2022-11-29T04:49:14.004Z,-2.12
2022-11-29T04:52:13.746Z,-2.12
2022-11-29T04:54:52.910Z,-2.09
2022-11-29T04:58:14.641Z,-2.09
2022-11-29T05:01:00.566Z,-2.12
2022-11-29T05:03:56.833Z,-2.12
2022-11-29T05:07:04.011Z,-2.12
2022-11-29T05:09:49.448Z,-2.12
2022-11-29T05:12:47.183Z,-2.23
2022-11-29T05:15:29.601Z,-2.10
2022-11-29T05:18:15.016Z,-2.09
2022-11-29T05:21:08.246Z,-2.09
2022-11-29T05:23:56.598Z,-2.09
2022-11-29T05:26:32.664Z,-2.09
2022-11-29T05:29:14.616Z,-2.10
2022-11-29T05:32:28.642Z,-2.08
2022-11-29T05:35:19.814Z,-2.04
2022-11-29T05:38:04.909Z,-1.99
2022-11-29T05:40:53.372Z,-1.95
2022-11-29T05:44:01.008Z,-1.90
2022-11-29T05:46:53.011Z,-1.88
2022-11-29T05:49:46.020Z,-1.83
2022-11-29T05:52:45.208Z,-1.81
2022-11-29T05:55:42.768Z,-1.77
2022-11-29T05:58:30.542Z,-1.76
2022-11-29T06:01:03.564Z,-1.75
2022-11-29T06:03:43.066Z,-1.68
2022-11-29T06:06:40.368Z,-1.62
2022-11-29T06:09:31.220Z,-1.53
2022-11-29T06:12:07.272Z,-1.03
2022-11-29T06:15:08.688Z,-0.41
2022-11-29T06:18:03.265Z,0.07
2022-11-29T06:20:54.892Z,0.43
2022-11-29T06:23:42.748Z,0.99
2022-11-29T06:26:33.276Z,1.46
2022-11-29T06:29:24.829Z,1.85
2022-11-29T06:31:57.840Z,2.23
2022-11-29T06:34:55.154Z,2.57
2022-11-29T06:37:30.984Z,2.83
2022-11-29T06:39:59.118Z,2.95
2022-11-29T06:42:26.854Z,2.81
2022-11-29T06:44:56.210Z,2.60
2022-11-29T06:47:31.493Z,2.57
2022-11-29T06:50:28.987Z,2.56
2022-11-29T06:53:35.615Z,2.46
2022-11-29T06:56:26.663Z,2.53
2022-11-29T06:59:39.847Z,2.69
2022-11-29T07:02:30.269Z,2.78
2022-11-29T07:05:24.227Z,2.91
2022-11-29T07:07:56.583Z,3.04
2022-11-29T07:10:25.279Z,3.17
2022-11-29T07:12:53.469Z,3.29
2022-11-29T07:15:23.272Z,3.44
2022-11-29T07:18:14.345Z,3.53
2022-11-29T07:21:06.086Z,3.67
2022-11-29T07:24:02.662Z,3.83
2022-11-29T07:27:08.472Z,3.98
2022-11-29T07:30:02.473Z,4.11
2022-11-29T07:32:43.647Z,4.23
2022-11-29T07:35:35.602Z,4.25
2022-11-29T07:38:39.091Z,4.32
2022-11-29T07:41:29.818Z,4.41
2022-11-29T07:44:05.807Z,4.50
2022-11-29T07:46:33.348Z,4.59
2022-11-29T07:49:01.224Z,4.60
2022-11-29T07:51:28.918Z,4.60
2022-11-29T07:53:56.593Z,4.66
2022-11-29T07:56:24.378Z,4.69
2022-11-29T07:58:51.975Z,4.66
2022-11-29T08:01:19.737Z,4.71
2022-11-29T08:03:47.550Z,4.82
2022-11-29T08:06:15.201Z,4.87
2022-11-29T08:08:44.340Z,4.85
2022-11-29T08:11:13.222Z,4.89
2022-11-29T08:13:40.768Z,4.92
2022-11-29T08:16:08.715Z,4.96
2022-11-29T08:18:36.597Z,4.98
2022-11-29T08:21:07.788Z,5.01
2022-11-29T08:23:35.450Z,5.07
2022-11-29T08:26:04.099Z,5.12
2022-11-29T08:28:31.617Z,5.21
2022-11-29T08:31:05.331Z,5.30
2022-11-29T08:33:37.410Z,5.36
2022-11-29T08:36:12.292Z,5.43
2022-11-29T08:38:40.408Z,5.48
2022-11-29T08:41:11.478Z,5.57
2022-11-29T08:43:39.824Z,5.68
2022-11-29T08:46:10.473Z,5.74
2022-11-29T08:48:39.607Z,5.89
2022-11-29T08:51:07.893Z,5.95
2022-11-29T08:53:42.001Z,6.02
2022-11-29T08:58:46.100Z,6.12
2022-11-29T09:01:17.799Z,6.15
2022-11-29T09:04:04.958Z,6.19
2022-11-29T09:06:42.548Z,6.26
2022-11-29T09:09:10.437Z,6.34
2022-11-29T09:11:38.288Z,6.35
2022-11-29T09:14:10.261Z,6.42
2022-11-29T09:16:38.732Z,6.45
2022-11-29T09:19:07.457Z,6.54
2022-11-29T09:21:36.270Z,6.68
2022-11-29T09:24:05.941Z,6.77
2022-11-29T09:26:37.435Z,6.85
2022-11-29T09:29:06.549Z,6.89
2022-11-29T09:31:35.220Z,6.95
2022-11-29T09:34:02.992Z,7.04
2022-11-29T09:36:31.504Z,7.04
2022-11-29T09:39:02.362Z,7.12
2022-11-29T09:41:56.952Z,7.23
2022-11-29T09:44:39.115Z,7.22
2022-11-29T09:47:39.500Z,7.19
2022-11-29T09:50:40.006Z,7.22
2022-11-29T09:53:31.101Z,7.29
2022-11-29T09:56:28.958Z,7.35
2022-11-29T09:59:08.002Z,7.46
2022-11-29T10:01:40.452Z,7.58
2022-11-29T10:04:22.662Z,7.66
2022-11-29T10:07:01.495Z,7.77
2022-11-29T10:09:49.902Z,7.86
2022-11-29T10:12:49.495Z,7.87
2022-11-29T10:15:27.503Z,8.01
2022-11-29T10:18:06.766Z,8.13
2022-11-29T10:20:48.762Z,8.27
2022-11-29T10:23:36.500Z,8.35
2022-11-29T10:26:07.077Z,8.41
2022-11-29T10:28:37.687Z,8.41
2022-11-29T10:31:24.567Z,8.41
2022-11-29T10:33:54.222Z,8.35
2022-11-29T10:36:50.736Z,8.26
2022-11-29T10:39:27.369Z,8.24
2022-11-29T10:41:59.748Z,8.33
2022-11-29T10:44:27.959Z,8.41
2022-11-29T10:46:56.275Z,8.46
2022-11-29T10:49:29.806Z,8.53
2022-11-29T10:51:57.545Z,8.60
2022-11-29T10:54:43.063Z,8.71
2022-11-29T10:57:17.871Z,8.71
2022-11-29T11:00:06.468Z,8.75
2022-11-29T11:02:37.664Z,8.78
2022-11-29T11:05:14.760Z,8.82
2022-11-29T11:07:42.726Z,8.90
2022-11-29T11:10:27.585Z,8.81
2022-11-29T11:13:18.778Z,8.79
2022-11-29T11:16:21.025Z,8.84
2022-11-29T11:18:57.844Z,8.79
2022-11-29T11:21:29.036Z,8.85
2022-11-29T11:24:04.110Z,8.89
2022-11-29T11:26:44.421Z,8.94
2022-11-29T11:29:22.965Z,8.83
2022-11-29T11:31:59.809Z,8.90
2022-11-29T11:34:34.365Z,8.95
2022-11-29T11:37:31.636Z,9.10
2022-11-29T11:40:20.752Z,9.14
2022-11-29T11:42:52.408Z,9.20
2022-11-29T11:45:28.949Z,9.28
2022-11-29T11:48:15.543Z,9.33
2022-11-29T11:50:53.890Z,9.36
2022-11-29T11:53:36.908Z,9.28
2022-11-29T11:56:12.025Z,9.27
2022-11-29T11:58:48.371Z,9.29
2022-11-29T12:01:30.140Z,9.27
2022-11-29T12:04:23.126Z,9.29
2022-11-29T12:07:02.480Z,9.25
2022-11-29T12:09:49.822Z,9.25
2022-11-29T12:12:28.087Z,9.22
2022-11-29T12:15:17.740Z,9.22
2022-11-29T12:17:57.587Z,9.19
2022-11-29T12:20:42.824Z,9.16
2022-11-29T12:23:48.826Z,9.11
2022-11-29T12:26:56.574Z,9.11
2022-11-29T12:29:01.690Z,9.16
2022-11-29T12:32:02.021Z,9.18
2022-11-29T12:34:44.672Z,9.13
2022-11-29T12:37:50.341Z,9.08
2022-11-29T12:40:48.952Z,9.04
2022-11-29T12:43:39.824Z,8.99
2022-11-29T12:46:15.354Z,9.00
2022-11-29T12:48:57.792Z,8.95
2022-11-29T12:51:50.877Z,8.92
2022-11-29T12:55:04.376Z,8.91
2022-11-29T12:57:49.383Z,8.90
2022-11-29T13:00:21.927Z,8.81
2022-11-29T13:03:13.632Z,8.76
2022-11-29T13:05:55.804Z,8.71
2022-11-29T13:08:51.438Z,8.70
2022-11-29T13:11:36.238Z,8.65
2022-11-29T13:14:48.954Z,8.59
2022-11-29T13:17:20.651Z,8.57
2022-11-29T13:19:54.805Z,8.51
2022-11-29T13:22:55.389Z,8.47
2022-11-29T13:25:39.845Z,8.45
2022-11-29T13:28:30.029Z,8.41
2022-11-29T13:31:09.928Z,8.34
2022-11-29T13:34:18.356Z,8.26
2022-11-29T13:37:18.599Z,8.23
2022-11-29T13:40:13.110Z,8.14
2022-11-29T13:43:15.685Z,8.03
2022-11-29T13:46:08.126Z,7.90
2022-11-29T13:48:53.067Z,7.79
2022-11-29T13:51:37.844Z,7.67
2022-11-29T13:54:25.615Z,7.57
2022-11-29T13:57:08.924Z,7.48
2022-11-29T13:59:45.736Z,7.33
2022-11-29T14:02:29.038Z,7.17
2022-11-29T14:04:56.756Z,7.07
2022-11-29T14:07:24.330Z,6.94
2022-11-29T14:10:05.652Z,6.83
2022-11-29T14:12:55.565Z,6.73
2022-11-29T14:15:28.867Z,6.62
2022-11-29T14:18:05.804Z,6.50
2022-11-29T14:20:45.051Z,6.40
2022-11-29T14:23:35.246Z,6.32
2022-11-29T14:26:11.985Z,6.24
2022-11-29T14:28:40.486Z,6.16
2022-11-29T14:31:09.257Z,6.07
2022-11-29T14:33:49.614Z,6.02
2022-11-29T14:39:46.384Z,5.86
2022-11-29T14:42:20.769Z,5.74
2022-11-29T14:45:01.013Z,5.66
2022-11-29T14:47:38.681Z,5.59
2022-11-29T14:50:10.016Z,5.51
2022-11-29T14:52:41.286Z,5.43
2022-11-29T14:55:22.866Z,5.36
2022-11-29T14:58:05.514Z,5.29
2022-11-29T15:00:50.587Z,5.21
2022-11-29T15:03:41.621Z,5.13
2022-11-29T15:06:23.782Z,5.05
2022-11-29T15:09:04.551Z,4.96
2022-11-29T15:11:52.499Z,4.88
2022-11-29T15:15:04.049Z,4.81
2022-11-29T15:18:12.755Z,4.72
2022-11-29T15:21:03.830Z,4.63
2022-11-29T15:23:44.026Z,4.49
2022-11-29T15:26:20.685Z,4.39
2022-11-29T15:28:48.392Z,4.29
2022-11-29T15:31:19.725Z,4.18
2022-11-29T15:33:49.336Z,4.10
2022-11-29T15:36:22.831Z,4.02
2022-11-29T15:38:54.680Z,3.96
2022-11-29T15:41:31.622Z,3.91
2022-11-29T15:44:02.433Z,3.83
2022-11-29T15:46:34.031Z,3.76
2022-11-29T15:49:23.884Z,3.67
2022-11-29T15:51:59.789Z,3.59
2022-11-29T15:54:44.453Z,3.49
2022-11-29T15:57:15.940Z,3.41
2022-11-29T15:59:55.215Z,3.32
2022-11-29T16:02:28.331Z,3.23
2022-11-29T16:05:07.552Z,3.17
2022-11-29T16:07:36.847Z,3.11
2022-11-29T16:10:29.195Z,3.05
2022-11-29T16:12:58.688Z,2.98
2022-11-29T16:15:30.687Z,2.92
2022-11-29T16:18:19.534Z,2.87
2022-11-29T16:21:05.085Z,2.82
2022-11-29T16:23:41.581Z,2.76
2022-11-29T16:26:25.696Z,2.70
2022-11-29T16:28:58.181Z,2.55
2022-11-29T16:31:37.753Z,2.60
2022-11-29T16:34:29.874Z,2.56
2022-11-29T16:37:08.708Z,2.50
2022-11-29T16:39:39.300Z,2.39
2022-11-29T16:42:25.721Z,2.32
2022-11-29T16:48:39.916Z,2.18
2022-11-29T16:51:14.151Z,2.06
2022-11-29T16:53:47.884Z,2.01
2022-11-29T16:56:18.934Z,1.93
2022-11-29T16:59:25.730Z,1.89
2022-11-29T17:01:27.666Z,1.83
2022-11-29T17:03:58.987Z,1.80
2022-11-29T17:06:29.186Z,1.74
2022-11-29T17:08:59.111Z,1.72
2022-11-29T17:11:26.784Z,1.69
2022-11-29T17:13:54.607Z,1.66
2022-11-29T17:16:24.811Z,1.65
2022-11-29T17:18:53.350Z,1.65
2022-11-29T17:21:30.913Z,1.64
2022-11-29T17:23:59.100Z,1.64
2022-11-29T17:26:30.197Z,1.64
2022-11-29T17:28:59.379Z,1.61
2022-11-29T17:31:30.430Z,1.60
2022-11-29T17:34:00.413Z,1.59
2022-11-29T17:36:30.908Z,1.57
2022-11-29T17:39:00.271Z,1.54
2022-11-29T17:41:30.005Z,1.53
2022-11-29T17:43:58.374Z,1.50
2022-11-29T17:46:33.611Z,1.46
2022-11-29T17:49:05.930Z,1.43
2022-11-29T17:51:54.438Z,1.41
2022-11-29T17:54:09.882Z,1.36
2022-11-29T17:56:37.927Z,1.34
2022-11-29T17:59:06.439Z,1.33
2022-11-29T18:01:36.146Z,1.29
2022-11-29T18:04:06.236Z,1.27
2022-11-29T18:06:39.511Z,1.22
2022-11-29T18:09:10.161Z,1.19
2022-11-29T18:11:48.660Z,1.16
2022-11-29T18:14:22.093Z,1.15
2022-11-29T18:16:50.414Z,1.13
2022-11-29T18:19:21.236Z,1.10
2022-11-29T18:21:52.158Z,1.08
2022-11-29T18:24:20.022Z,1.08
2022-11-29T18:26:48.253Z,1.07
2022-11-29T18:29:17.063Z,1.05
2022-11-29T18:31:45.654Z,1.01
2022-11-29T18:34:14.520Z,0.97
2022-11-29T18:36:46.145Z,0.91
2022-11-29T18:39:17.576Z,0.83
2022-11-29T18:41:49.031Z,0.78
2022-11-29T18:44:21.184Z,0.70
2022-11-29T18:46:49.323Z,0.63
2022-11-29T18:49:19.492Z,0.56
2022-11-29T18:51:49.221Z,0.51
2022-11-29T18:54:19.078Z,0.43
2022-11-29T18:56:50.614Z,0.37
2022-11-29T18:59:19.022Z,0.31
2022-11-29T19:01:48.569Z,0.22
2022-11-29T19:04:19.841Z,0.17
2022-11-29T19:06:48.376Z,0.12
2022-11-29T19:09:20.527Z,0.06
2022-11-29T19:11:49.341Z,0.01
2022-11-29T19:14:18.371Z,-0.04
2022-11-29T19:16:48.956Z,-0.06
2022-11-29T19:19:18.554Z,-0.12
2022-11-29T19:21:47.071Z,-0.13
2022-11-29T19:24:19.218Z,-0.15
2022-11-29T19:26:49.567Z,-0.17
2022-11-29T19:29:17.462Z,-0.20
2022-11-29T19:31:46.696Z,-0.21
2022-11-29T19:34:14.856Z,-0.24
2022-11-29T19:36:43.880Z,-0.25
2022-11-29T19:39:15.288Z,-0.26
2022-11-29T19:41:47.212Z,-0.28
2022-11-29T19:44:15.818Z,-0.31
2022-11-29T19:46:48.329Z,-0.33
2022-11-29T19:49:16.663Z,-0.34
2022-11-29T19:51:44.466Z,-0.35
2022-11-29T19:54:12.687Z,-0.37
2022-11-29T19:56:41.292Z,-0.39
2022-11-29T19:59:10.392Z,-0.40
2022-11-29T20:01:43.106Z,-0.41
2022-11-29T20:04:15.543Z,-0.43
2022-11-29T20:06:43.987Z,-0.45
2022-11-29T20:09:14.007Z,-0.46
2022-11-29T20:11:45.041Z,-0.47
2022-11-29T20:14:14.081Z,-0.49
2022-11-29T20:16:43.235Z,-0.50
2022-11-29T20:19:16.718Z,-0.48
2022-11-29T20:21:48.546Z,-0.50
2022-11-29T20:24:19.037Z,-0.50
2022-11-29T20:26:49.022Z,-0.50
2022-11-29T20:29:20.001Z,-0.53
2022-11-29T20:31:51.235Z,-0.57
2022-11-29T20:34:20.660Z,-0.58
2022-11-29T20:37:09.332Z,-0.58
2022-11-29T20:40:01.167Z,-0.60
2022-11-29T20:42:54.137Z,-0.64
2022-11-29T20:45:24.283Z,-0.65
2022-11-29T20:48:21.453Z,-0.64
2022-11-29T20:50:59.909Z,-0.66
2022-11-29T20:53:38.796Z,-0.77
2022-11-29T20:56:08.779Z,-0.70
2022-11-29T20:58:37.466Z,-0.73
2022-11-29T21:01:07.440Z,-0.74
2022-11-29T21:03:35.728Z,-0.76
2022-11-29T21:06:05.848Z,-0.79
2022-11-29T21:08:34.741Z,-0.81
2022-11-29T21:11:09.811Z,-0.83
2022-11-29T21:13:39.844Z,-0.86
2022-11-29T21:16:13.328Z,-0.86
2022-11-29T21:18:41.645Z,-0.87
2022-11-29T21:21:20.714Z,-0.86
2022-11-29T21:24:04.408Z,-0.84
2022-11-29T21:26:51.341Z,-0.84
2022-11-29T21:29:22.730Z,-0.84
2022-11-29T21:31:53.640Z,-0.82
2022-11-29T21:34:22.018Z,-0.81
2022-11-29T21:36:59.000Z,-0.79
2022-11-29T21:39:33.164Z,-0.78
2022-11-29T21:42:06.003Z,-0.76
2022-11-29T21:44:35.769Z,-0.75
2022-11-29T21:47:04.440Z,-0.75
2022-11-29T21:49:32.083Z,-0.76
2022-11-29T21:52:00.940Z,-0.79
2022-11-29T21:54:30.163Z,-0.80
2022-11-29T21:56:59.712Z,-0.83
2022-11-29T21:59:29.430Z,-0.84
2022-11-29T22:01:57.579Z,-0.85
2022-11-29T22:04:25.482Z,-0.87
2022-11-29T22:06:54.274Z,-0.89
2022-11-29T22:09:22.157Z,-0.91
2022-11-29T22:11:50.171Z,-0.92
2022-11-29T22:14:18.334Z,-0.94
2022-11-29T22:16:53.738Z,-0.97
2022-11-29T22:19:24.014Z,-0.99
2022-11-29T22:21:55.718Z,-1.00
2022-11-29T22:24:27.523Z,-1.03
2022-11-29T22:26:56.223Z,-1.04
2022-11-29T22:29:24.832Z,-1.06
2022-11-29T22:31:58.971Z,-1.06
2022-11-29T22:34:27.853Z,-1.08
2022-11-29T22:36:56.305Z,-1.10
2022-11-29T22:39:24.320Z,-1.14
2022-11-29T22:41:55.009Z,-1.18
2022-11-29T22:44:24.696Z,-1.22
2022-11-29T22:46:52.768Z,-1.24
2022-11-29T22:49:20.461Z,-1.24
2022-11-29T22:51:48.229Z,-1.25
2022-11-29T22:54:18.075Z,-1.25
2022-11-29T22:56:46.520Z,-1.25
2022-11-29T22:59:14.468Z,-1.27
2022-11-29T23:01:42.887Z,-1.28
2022-11-29T23:04:13.637Z,-1.30
2022-11-29T23:06:44.495Z,-1.32
2022-11-29T23:09:16.406Z,-1.31
2022-11-29T23:11:47.913Z,-1.33
2022-11-29T23:14:15.830Z,-1.36
2022-11-29T23:16:43.390Z,-1.36
2022-11-29T23:19:11.984Z,-1.37
2022-11-29T23:21:41.299Z,-1.38
2022-11-29T23:24:09.423Z,-1.38
2022-11-29T23:26:40.410Z,-1.38
2022-11-29T23:29:11.918Z,-1.40
2022-11-29T23:31:40.274Z,-1.41
2022-11-29T23:34:08.702Z,-1.43
2022-11-29T23:36:36.639Z,-1.45
2022-11-29T23:39:09.085Z,-1.46
2022-11-29T23:41:37.156Z,-1.54
2022-11-29T23:44:05.711Z,-1.47
2022-11-29T23:46:34.988Z,-1.49
2022-11-29T23:49:03.034Z,-1.48
2022-11-29T23:51:30.880Z,-1.46
2022-11-29T23:53:58.505Z,-1.45
2022-11-29T23:56:26.460Z,-1.45
2022-11-29T23:58:54.098Z,-1.44
